Time;durP1;ratioP1;P1;durP2;ratioP2;P2;SDS_P1;SDS_P2;PMS_P1;PMS_P2;Temp;Humidity;BMP_temperature;BMP_pressure;BME280_temperature;BME280_humidity;BME280_pressure;Samples;Min_cycle;Max_cycle;Signal;HPM_P1;HPM_P2
2021/06/27 00:00:39;;;;;;;8.93;7.00;;;18.10;99.90;;;;;;5049354;28;20049;-68
2021/06/27 00:03:26;;;;;;;8.20;6.47;;;18.00;99.90;;;;;;5016652;28;20041;-68
2021/06/27 00:05:53;;;;;;;8.43;6.75;;;18.00;99.90;;;;;;5051823;28;20045;-68
2021/06/27 00:08:21;;;;;;;9.52;7.38;;;17.90;99.90;;;;;;5051977;28;20052;-68
2021/06/27 00:10:48;;;;;;;11.52;6.88;;;17.90;99.90;;;;;;5052271;28;20084;-68
2021/06/27 00:13:15;;;;;;;9.48;6.78;;;17.80;99.90;;;;;;5052727;28;20060;-68
2021/06/27 00:15:47;;;;;;;8.13;6.45;;;17.80;99.90;;;;;;5052023;28;20051;-68
2021/06/27 00:18:17;;;;;;;9.80;7.35;;;17.70;99.90;;;;;;5033313;28;20372;-68
2021/06/27 00:20:47;;;;;;;8.80;6.57;;;17.70;99.90;;;;;;5034280;28;20496;-68
2021/06/27 00:23:19;;;;;;;10.40;7.50;;;17.70;99.90;;;;;;5051363;28;20045;-68
2021/06/27 00:25:47;;;;;;;8.88;6.93;;;17.60;99.90;;;;;;5051297;28;20048;-68
2021/06/27 00:28:15;;;;;;;9.88;7.53;;;17.60;99.90;;;;;;5051355;28;20052;-68
2021/06/27 00:30:45;;;;;;;9.43;7.75;;;17.60;99.90;;;;;;5029225;28;20104;-68
2021/06/27 00:33:13;;;;;;;11.48;7.07;;;17.50;99.90;;;;;;5044876;28;20096;-68
2021/06/27 00:35:40;;;;;;;9.30;7.18;;;17.50;99.90;;;;;;5033689;28;20041;-68
2021/06/27 00:38:08;;;;;;;10.13;7.32;;;17.50;99.90;;;;;;5043870;28;20068;-68
2021/06/27 00:40:36;;;;;;;9.63;7.38;;;17.50;99.90;;;;;;5051555;28;20103;-68
2021/06/27 00:43:05;;;;;;;9.10;7.07;;;17.40;99.90;;;;;;5033938;28;20045;-68
2021/06/27 00:45:33;;;;;;;9.93;7.63;;;17.40;99.90;;;;;;5032508;28;20041;-68
2021/06/27 00:48:02;;;;;;;12.55;7.40;;;17.30;99.90;;;;;;5033242;28;20061;-66
2021/06/27 00:50:34;;;;;;;9.82;7.20;;;17.30;99.90;;;;;;5050429;28;20468;-68
2021/06/27 00:53:02;;;;;;;9.40;7.05;;;17.30;99.90;;;;;;5032575;28;20048;-68
2021/06/27 00:55:30;;;;;;;9.70;7.20;;;17.20;99.90;;;;;;5051053;28;20400;-68
2021/06/27 00:57:57;;;;;;;9.00;7.40;;;17.30;99.90;;;;;;5051079;28;20049;-68
2021/06/27 01:00:28;;;;;;;9.38;6.78;;;17.30;99.90;;;;;;5051720;28;20053;-68
2021/06/27 01:02:57;;;;;;;8.70;6.93;;;17.30;99.90;;;;;;5049625;28;20052;-68
2021/06/27 01:05:29;;;;;;;8.32;6.43;;;17.30;99.90;;;;;;5051441;28;20053;-68
2021/06/27 01:07:57;;;;;;;10.70;7.55;;;17.20;99.90;;;;;;5031304;28;20064;-68
2021/06/27 01:10:25;;;;;;;10.20;7.90;;;17.20;99.90;;;;;;5043384;28;20096;-66
2021/06/27 01:12:55;;;;;;;9.18;7.57;;;17.20;99.90;;;;;;5051309;28;20056;-68
2021/06/27 01:15:23;;;;;;;9.98;7.05;;;17.20;99.90;;;;;;5032633;28;20084;-68
2021/06/27 01:17:53;;;;;;;9.73;7.55;;;17.10;99.90;;;;;;5030021;28;20076;-68
2021/06/27 01:20:27;;;;;;;8.38;6.65;;;17.10;99.90;;;;;;5051403;28;20377;-68
2021/06/27 01:22:57;;;;;;;8.18;6.88;;;17.10;99.90;;;;;;5033603;28;20140;-68
2021/06/27 01:25:31;;;;;;;8.85;6.97;;;17.10;99.90;;;;;;5033190;28;20198;-68
2021/06/27 01:27:59;;;;;;;8.88;6.93;;;17.10;99.90;;;;;;5051110;28;20549;-68
2021/06/27 01:30:28;;;;;;;10.07;7.35;;;17.10;99.90;;;;;;5050270;28;20132;-68
2021/06/27 01:32:57;;;;;;;11.40;7.28;;;17.10;99.90;;;;;;5050940;28;20147;-68
2021/06/27 01:35:26;;;;;;;9.45;7.53;;;17.00;99.90;;;;;;5017022;28;20514;-68
2021/06/27 01:37:56;;;;;;;10.45;7.18;;;17.00;99.90;;;;;;5032857;28;20060;-69
2021/06/27 01:40:28;;;;;;;9.52;7.28;;;16.90;99.90;;;;;;5050238;28;20056;-68
2021/06/27 01:43:21;;;;;;;8.93;7.30;;;16.90;99.90;;;;;;5049909;28;20119;-68
2021/06/27 01:45:55;;;;;;;9.40;7.50;;;16.90;99.90;;;;;;5048865;28;20126;-68
2021/06/27 01:48:24;;;;;;;9.82;7.50;;;16.90;99.90;;;;;;5043314;28;20049;-68
2021/06/27 01:50:54;;;;;;;10.50;7.53;;;16.70;99.90;;;;;;5050691;28;20049;-68
2021/06/27 01:53:25;;;;;;;9.63;7.15;;;16.80;99.90;;;;;;5048686;28;20139;-67
2021/06/27 01:56:14;;;;;;;10.20;7.70;;;16.70;99.90;;;;;;5033147;28;20052;-67
2021/06/27 01:58:51;;;;;;;13.30;8.68;;;16.60;99.90;;;;;;5044402;28;20470;-67
2021/06/27 02:01:34;;;;;;;8.60;7.13;;;16.60;99.90;;;;;;5045554;28;20044;-67
2021/06/27 02:04:03;;;;;;;10.48;7.13;;;16.60;99.90;;;;;;5035997;28;20480;-67
2021/06/27 02:06:40;;;;;;;8.95;7.38;;;16.60;99.90;;;;;;5055394;28;20068;-67
2021/06/27 02:09:09;;;;;;;11.80;7.63;;;16.50;99.90;;;;;;5052538;28;20109;-67
2021/06/27 02:11:38;;;;;;;9.52;7.57;;;16.50;99.90;;;;;;5034993;28;20049;-67
2021/06/27 02:14:07;;;;;;;9.35;7.78;;;16.50;99.90;;;;;;5054448;28;20052;-67
2021/06/27 02:16:35;;;;;;;9.98;6.93;;;16.50;99.90;;;;;;5055874;28;20036;-68
2021/06/27 02:19:04;;;;;;;10.90;7.45;;;16.50;99.90;;;;;;5038756;28;20083;-68
2021/06/27 02:21:35;;;;;;;11.25;7.68;;;16.40;99.90;;;;;;5039797;28;20052;-68
2021/06/27 02:24:04;;;;;;;10.50;7.63;;;16.40;99.90;;;;;;5046622;28;20071;-68
2021/06/27 02:26:34;;;;;;;10.10;7.47;;;16.40;99.90;;;;;;5038048;28;20049;-68
2021/06/27 02:29:03;;;;;;;9.15;7.18;;;16.40;99.90;;;;;;5056056;28;20044;-67
2021/06/27 02:31:32;;;;;;;10.82;7.53;;;16.40;99.90;;;;;;5051846;28;20087;-68
2021/06/27 02:34:00;;;;;;;10.82;8.00;;;16.40;99.90;;;;;;5037573;28;20072;-68
2021/06/27 02:36:28;;;;;;;10.27;7.43;;;16.40;99.90;;;;;;5043443;28;20044;-68
2021/06/27 02:38:56;;;;;;;8.65;7.32;;;16.40;99.90;;;;;;5037553;28;20049;-67
2021/06/27 02:41:23;;;;;;;10.40;7.65;;;16.40;99.90;;;;;;5055782;28;20127;-67
2021/06/27 02:43:51;;;;;;;9.57;7.70;;;16.30;99.90;;;;;;5053810;28;20457;-68
2021/06/27 02:46:18;;;;;;;11.25;8.30;;;16.30;99.90;;;;;;5038436;28;20106;-67
2021/06/27 02:48:45;;;;;;;10.30;8.38;;;16.30;99.90;;;;;;5052843;28;20407;-67
2021/06/27 02:51:13;;;;;;;15.43;8.07;;;16.30;99.90;;;;;;5038553;28;20057;-67
2021/06/27 02:53:40;;;;;;;10.68;8.25;;;16.30;99.90;;;;;;5037840;28;20462;-67
2021/06/27 02:56:08;;;;;;;10.20;7.82;;;16.30;99.90;;;;;;5039185;28;20115;-68
2021/06/27 02:58:38;;;;;;;10.20;8.18;;;16.30;99.90;;;;;;5052174;28;20492;-67
2021/06/27 03:01:06;;;;;;;9.43;8.05;;;16.20;99.90;;;;;;5056756;28;20049;-67
2021/06/27 03:03:35;;;;;;;9.73;7.85;;;16.20;99.90;;;;;;5051202;28;20155;-67
2021/06/27 03:06:02;;;;;;;11.98;8.23;;;16.20;99.90;;;;;;5038326;28;20629;-67
2021/06/27 03:08:31;;;;;;;10.00;8.25;;;16.20;99.90;;;;;;5052014;28;20190;-67
2021/06/27 03:10:59;;;;;;;12.13;8.52;;;16.20;99.90;;;;;;5038346;28;20049;-67
2021/06/27 03:13:27;;;;;;;11.63;8.93;;;16.20;99.90;;;;;;5036157;28;20037;-67
2021/06/27 03:15:55;;;;;;;10.30;8.30;;;16.20;99.90;;;;;;5035436;28;20065;-67
2021/06/27 03:18:22;;;;;;;10.18;8.02;;;16.20;99.90;;;;;;5034029;28;20167;-68
2021/06/27 03:20:50;;;;;;;10.40;8.10;;;16.20;99.90;;;;;;5035159;28;20033;-68
2021/06/27 03:23:17;;;;;;;9.98;8.23;;;16.20;99.90;;;;;;5035498;28;20052;-68
2021/06/27 03:25:44;;;;;;;10.73;8.65;;;16.20;99.90;;;;;;5051658;28;20122;-68
2021/06/27 03:28:12;;;;;;;12.07;8.88;;;16.30;99.90;;;;;;5050869;28;20048;-68
2021/06/27 03:30:39;;;;;;;10.10;8.27;;;16.20;99.90;;;;;;5052704;28;20060;-68
2021/06/27 03:33:08;;;;;;;9.95;8.40;;;16.30;99.90;;;;;;5050199;28;20053;-67
2021/06/27 03:35:37;;;;;;;11.35;8.18;;;16.30;99.90;;;;;;5051009;28;20515;-67
2021/06/27 03:40:31;;;;;;;11.13;8.25;;;16.40;99.90;;;;;;5051261;28;20523;-67
2021/06/27 03:43:01;;;;;;;10.55;8.77;;;16.50;99.90;;;;;;5051297;28;20117;-68
2021/06/27 03:45:29;;;;;;;10.73;9.00;;;16.50;99.90;;;;;;5051769;28;20131;-68
2021/06/27 03:47:57;;;;;;;11.25;8.65;;;16.50;99.90;;;;;;5050469;28;20049;-67
2021/06/27 03:50:24;;;;;;;9.43;7.80;;;16.60;99.90;;;;;;5053378;28;20060;-67
2021/06/27 03:52:51;;;;;;;9.35;7.47;;;16.70;99.90;;;;;;5033544;28;20057;-67
2021/06/27 03:55:20;;;;;;;10.07;8.25;;;16.70;99.90;;;;;;5052274;28;20475;-67
2021/06/27 03:57:48;;;;;;;10.95;7.97;;;16.80;99.90;;;;;;5034241;28;20049;-67
2021/06/27 04:00:17;;;;;;;9.73;8.18;;;16.80;99.90;;;;;;5052449;28;20045;-67
2021/06/27 04:02:45;;;;;;;12.70;8.77;;;16.90;99.90;;;;;;5049781;28;20561;-68
2021/06/27 04:05:13;;;;;;;10.38;9.00;;;16.90;99.90;;;;;;5048632;28;20172;-68
2021/06/27 04:07:42;;;;;;;10.60;7.80;;;16.90;99.90;;;;;;5037733;28;20079;-68
2021/06/27 04:10:10;;;;;;;12.73;9.02;;;17.00;99.90;;;;;;5049197;28;20060;-68
2021/06/27 04:12:38;;;;;;;12.52;8.35;;;17.00;99.90;;;;;;5024998;28;20055;-68
2021/06/27 04:15:08;;;;;;;12.05;8.15;;;17.00;99.90;;;;;;5046635;28;20488;-68
2021/06/27 04:17:36;;;;;;;11.75;8.27;;;17.10;99.90;;;;;;5051997;28;20053;-68
2021/06/27 04:20:06;;;;;;;11.48;8.40;;;17.20;99.90;;;;;;5051333;28;20072;-68
2021/06/27 04:22:35;;;;;;;8.77;7.72;;;17.20;99.90;;;;;;5050569;28;20132;-68
2021/06/27 04:25:04;;;;;;;9.98;7.85;;;17.40;99.90;;;;;;5050706;28;20046;-68
2021/06/27 04:27:31;;;;;;;10.07;8.73;;;17.50;99.90;;;;;;5032723;28;20045;-68
2021/06/27 04:29:59;;;;;;;10.48;7.72;;;17.50;99.90;;;;;;5050413;28;20475;-68
2021/06/27 04:32:28;;;;;;;10.35;8.02;;;17.50;99.90;;;;;;5048940;28;20454;-68
2021/06/27 04:34:55;;;;;;;9.23;7.70;;;17.60;99.90;;;;;;5049405;28;20557;-68
2021/06/27 04:37:22;;;;;;;10.25;8.10;;;17.80;99.90;;;;;;5050100;28;20055;-68
2021/06/27 04:39:51;;;;;;;9.20;7.82;;;17.80;99.90;;;;;;5027197;28;20067;-68
2021/06/27 04:42:18;;;;;;;9.98;7.80;;;17.90;99.90;;;;;;5025256;28;20045;-68
2021/06/27 04:44:45;;;;;;;9.18;7.97;;;18.00;99.90;;;;;;5029371;28;20037;-68
2021/06/27 04:47:13;;;;;;;8.95;7.45;;;18.10;99.90;;;;;;5051179;28;20053;-68
2021/06/27 04:49:41;;;;;;;9.85;7.55;;;18.20;99.90;;;;;;5031734;28;20059;-68
2021/06/27 04:52:09;;;;;;;9.23;7.80;;;18.30;99.90;;;;;;5050171;28;20443;-68
2021/06/27 04:54:37;;;;;;;9.65;7.88;;;18.40;99.90;;;;;;5050903;28;20644;-68
2021/06/27 04:57:05;;;;;;;10.20;7.13;;;18.60;99.90;;;;;;5033767;28;20100;-68
2021/06/27 04:59:33;;;;;;;8.90;7.43;;;18.70;99.90;;;;;;5050345;28;20191;-68
2021/06/27 05:02:00;;;;;;;9.43;7.72;;;18.90;99.90;;;;;;5014919;28;20439;-68
2021/06/27 05:04:27;;;;;;;9.15;7.45;;;19.00;99.90;;;;;;5016158;28;20451;-68
2021/06/27 05:06:55;;;;;;;9.45;7.45;;;19.10;99.90;;;;;;5032354;28;20045;-69
2021/06/27 05:09:22;;;;;;;7.97;6.70;;;19.20;99.90;;;;;;5031373;28;20095;-68
2021/06/27 05:11:49;;;;;;;8.93;7.78;;;19.30;99.90;;;;;;5050337;28;20112;-68
2021/06/27 05:14:17;;;;;;;11.48;8.45;;;19.50;99.90;;;;;;5032802;28;20052;-68
2021/06/27 05:16:44;;;;;;;10.30;7.68;;;19.60;99.90;;;;;;5049970;28;20072;-68
2021/06/27 05:19:11;;;;;;;9.85;7.55;;;19.70;99.90;;;;;;5040093;28;20053;-68
2021/06/27 05:21:40;;;;;;;10.68;7.25;;;19.90;99.90;;;;;;5032810;28;20052;-68
2021/06/27 05:24:08;;;;;;;11.00;8.55;;;20.10;99.90;;;;;;5049973;28;20099;-68
2021/06/27 05:26:35;;;;;;;9.82;8.13;;;20.20;99.90;;;;;;5031986;28;20417;-68
2021/06/27 05:29:03;;;;;;;10.88;8.63;;;20.20;99.90;;;;;;5041596;28;20423;-68
2021/06/27 05:31:36;;;;;;;10.57;7.88;;;20.40;99.90;;;;;;5048358;28;20053;-68
2021/06/27 05:34:05;;;;;;;13.48;7.80;;;20.40;99.90;;;;;;5048312;28;20455;-68
2021/06/27 05:36:37;;;;;;;9.55;7.43;;;20.50;99.90;;;;;;5049834;28;20561;-68
2021/06/27 05:39:10;;;;;;;7.95;6.47;;;20.50;99.90;;;;;;5049715;28;20044;-68
2021/06/27 05:41:39;;;;;;;10.23;7.50;;;20.70;99.90;;;;;;5050739;28;20059;-68
2021/06/27 05:44:07;;;;;;;9.45;7.78;;;20.70;99.90;;;;;;5032078;28;20431;-68
2021/06/27 05:46:35;;;;;;;8.07;7.05;;;20.80;99.90;;;;;;5045250;28;20538;-68
2021/06/27 05:49:05;;;;;;;8.45;6.85;;;20.90;99.90;;;;;;5028453;28;20077;-68
2021/06/27 05:51:40;;;;;;;8.48;7.30;;;21.00;99.90;;;;;;5049908;28;20049;-68
2021/06/27 05:54:08;;;;;;;7.93;6.57;;;21.10;99.90;;;;;;5049422;28;20055;-68
2021/06/27 05:56:36;;;;;;;9.35;8.23;;;21.20;99.90;;;;;;5031646;28;20057;-68
2021/06/27 05:59:05;;;;;;;10.88;8.68;;;21.30;99.90;;;;;;5040079;28;20049;-68
2021/06/27 06:01:32;;;;;;;10.25;8.77;;;21.40;99.90;;;;;;5050457;28;20053;-68
2021/06/27 06:04:00;;;;;;;9.60;8.52;;;21.40;99.90;;;;;;5032034;28;20045;-68
2021/06/27 06:06:27;;;;;;;8.85;7.38;;;21.50;99.90;;;;;;5050139;28;20092;-68
2021/06/27 06:08:54;;;;;;;9.73;8.10;;;21.60;99.90;;;;;;5043629;28;20045;-68
2021/06/27 06:11:24;;;;;;;9.10;7.43;;;21.60;99.90;;;;;;5049781;28;20049;-68
2021/06/27 06:13:51;;;;;;;8.90;7.97;;;21.70;99.90;;;;;;5023983;28;20119;-68
2021/06/27 06:16:19;;;;;;;10.93;8.95;;;21.70;99.90;;;;;;5032877;28;20064;-68
2021/06/27 06:18:46;;;;;;;9.35;8.18;;;21.70;99.90;;;;;;5035578;28;20041;-68
2021/06/27 06:21:15;;;;;;;9.95;7.78;;;21.70;99.90;;;;;;5049439;28;20079;-68
2021/06/27 06:23:43;;;;;;;9.23;7.07;;;21.80;99.90;;;;;;5049074;28;20103;-68
2021/06/27 06:26:11;;;;;;;11.15;8.65;;;21.70;99.90;;;;;;5050096;28;20041;-68
2021/06/27 06:28:39;;;;;;;11.65;8.13;;;21.70;99.90;;;;;;5044330;28;20049;-68
2021/06/27 06:31:09;;;;;;;9.07;7.53;;;21.80;99.90;;;;;;5049466;28;20455;-69
2021/06/27 06:33:37;;;;;;;11.43;9.73;;;21.80;99.90;;;;;;5049453;28;20053;-66
2021/06/27 06:36:05;;;;;;;12.48;9.38;;;21.90;99.90;;;;;;5043747;28;20057;-67
2021/06/27 06:38:33;;;;;;;10.18;9.07;;;22.00;99.90;;;;;;5028497;28;20456;-67
2021/06/27 06:41:00;;;;;;;11.50;8.63;;;22.00;99.90;;;;;;5036926;28;20575;-67
2021/06/27 06:43:28;;;;;;;8.35;7.35;;;22.20;99.90;;;;;;5049275;28;20574;-67
2021/06/27 06:45:56;;;;;;;8.93;7.40;;;22.30;99.90;;;;;;5048852;28;20045;-67
2021/06/27 06:48:23;;;;;;;8.75;7.32;;;22.50;99.90;;;;;;5030905;28;20075;-67
2021/06/27 06:50:51;;;;;;;8.63;7.28;;;22.70;99.90;;;;;;5051992;28;20099;-67
2021/06/27 06:53:18;;;;;;;11.02;7.38;;;22.70;99.90;;;;;;5052379;28;20510;-67
2021/06/27 06:55:46;;;;;;;9.15;7.40;;;22.70;99.90;;;;;;5054242;28;20107;-67
2021/06/27 06:58:13;;;;;;;9.10;7.93;;;22.70;99.90;;;;;;5052338;28;20095;-67
2021/06/27 07:00:41;;;;;;;8.02;6.82;;;22.80;99.90;;;;;;5036023;28;20079;-67
2021/06/27 07:03:09;;;;;;;9.50;8.50;;;22.80;99.90;;;;;;5053026;28;20128;-67
2021/06/27 07:05:36;;;;;;;9.18;7.75;;;22.70;99.90;;;;;;5053809;28;20510;-67
2021/06/27 07:08:04;;;;;;;12.85;10.75;;;22.70;99.90;;;;;;5052745;28;20404;-67
2021/06/27 07:10:31;;;;;;;8.68;7.35;;;22.60;99.90;;;;;;5040708;28;20136;-68
2021/06/27 07:12:59;;;;;;;9.30;7.60;;;22.50;99.90;;;;;;5040586;28;20061;-67
2021/06/27 07:15:27;;;;;;;12.07;8.75;;;22.40;99.90;;;;;;5047569;28;20068;-67
2021/06/27 07:17:54;;;;;;;11.10;7.35;;;22.40;99.90;;;;;;5043240;28;20080;-67
2021/06/27 07:20:22;;;;;;;8.90;7.00;;;22.40;99.90;;;;;;5052919;28;20053;-68
2021/06/27 07:22:49;;;;;;;8.57;6.88;;;22.50;99.90;;;;;;5035182;28;20387;-68
2021/06/27 07:25:16;;;;;;;9.00;7.82;;;22.60;99.90;;;;;;5036540;28;20530;-67
2021/06/27 07:27:43;;;;;;;9.20;7.05;;;22.70;99.90;;;;;;5034685;28;20079;-67
2021/06/27 07:30:11;;;;;;;6.90;6.20;;;22.80;99.90;;;;;;5053157;28;20077;-67
2021/06/27 07:32:39;;;;;;;9.88;6.70;;;22.90;99.90;;;;;;5045696;28;20088;-67
2021/06/27 07:35:06;;;;;;;10.63;7.35;;;23.00;99.90;;;;;;5033361;28;20092;-67
2021/06/27 07:37:44;;;;;;;8.30;7.40;;;23.00;99.90;;;;;;5032141;28;20127;-68
2021/06/27 07:40:12;;;;;;;7.95;6.25;;;23.00;99.90;;;;;;5052833;28;20047;-67
2021/06/27 07:42:41;;;;;;;15.35;10.95;;;23.10;99.90;;;;;;5031568;28;20599;-67
2021/06/27 07:45:09;;;;;;;12.07;8.57;;;23.20;99.90;;;;;;5050267;28;20131;-67
2021/06/27 07:47:37;;;;;;;10.13;8.85;;;23.20;99.90;;;;;;5052160;28;20052;-67
2021/06/27 07:50:06;;;;;;;8.77;6.88;;;23.40;99.90;;;;;;5052477;28;20055;-68
2021/06/27 07:52:36;;;;;;;8.20;7.15;;;23.50;99.90;;;;;;5052498;28;20088;-66
2021/06/27 07:55:06;;;;;;;9.43;7.95;;;23.70;99.90;;;;;;5052916;28;20049;-68
2021/06/27 07:57:38;;;;;;;16.15;14.23;;;23.70;99.90;;;;;;5035902;28;20056;-67
2021/06/27 08:00:07;;;;;;;9.05;7.35;;;23.80;99.90;;;;;;5038262;28;20060;-67
2021/06/27 08:02:43;;;;;;;16.20;11.38;;;24.00;99.90;;;;;;5051968;28;20049;-67
2021/06/27 08:05:11;;;;;;;7.88;6.72;;;24.30;99.90;;;;;;5044353;28;20069;-67
2021/06/27 08:07:39;;;;;;;7.75;6.85;;;24.50;99.90;;;;;;5042581;28;20049;-67
2021/06/27 08:10:08;;;;;;;9.55;6.55;;;24.70;99.90;;;;;;5048541;28;20067;-67
2021/06/27 08:12:37;;;;;;;8.00;6.45;;;24.90;99.90;;;;;;5034364;28;20160;-67
2021/06/27 08:15:07;;;;;;;8.15;6.50;;;25.10;99.90;;;;;;5052714;28;20102;-68
2021/06/27 08:17:36;;;;;;;11.13;7.27;;;25.10;99.90;;;;;;5052276;28;20049;-67
2021/06/27 08:20:05;;;;;;;8.27;6.53;;;25.30;99.90;;;;;;5042279;28;20359;-67
2021/06/27 08:22:32;;;;;;;8.10;6.53;;;25.40;99.90;;;;;;5024786;28;20083;-67
2021/06/27 08:24:59;;;;;;;9.30;8.00;;;25.50;99.90;;;;;;5052058;28;20053;-67
2021/06/27 08:27:28;;;;;;;8.30;6.68;;;25.70;99.90;;;;;;5052021;28;20095;-68
2021/06/27 08:29:55;;;;;;;8.00;6.45;;;25.70;99.90;;;;;;5051122;28;20045;-70
2021/06/27 08:32:23;;;;;;;7.80;5.60;;;25.70;99.90;;;;;;5033466;28;20095;-70
2021/06/27 08:34:50;;;;;;;9.48;7.03;;;25.70;99.90;;;;;;5027275;28;20092;-69
2021/06/27 08:37:17;;;;;;;6.90;6.20;;;25.70;99.90;;;;;;5051227;28;20053;-70
2021/06/27 08:39:45;;;;;;;7.55;6.00;;;25.60;99.90;;;;;;5052274;28;20087;-70
2021/06/27 08:42:13;;;;;;;7.43;6.30;;;25.50;99.90;;;;;;5034302;28;20462;-70
2021/06/27 08:44:42;;;;;;;8.30;6.40;;;25.50;99.90;;;;;;5031066;28;20136;-69
2021/06/27 08:47:14;;;;;;;8.02;6.47;;;25.40;99.90;;;;;;5051977;28;20044;-70
2021/06/27 08:49:46;;;;;;;7.03;5.72;;;25.50;99.90;;;;;;5046171;28;20585;-70
2021/06/27 08:52:18;;;;;;;8.95;7.10;;;25.50;99.90;;;;;;5051072;28;20040;-70
2021/06/27 08:54:48;;;;;;;9.57;8.40;;;25.70;99.90;;;;;;5029278;28;20140;-71
2021/06/27 08:57:17;;;;;;;7.78;6.13;;;25.80;99.90;;;;;;5037618;28;20053;-70
2021/06/27 08:59:45;;;;;;;10.27;8.68;;;25.80;99.90;;;;;;5037469;28;20048;-70
2021/06/27 09:02:13;;;;;;;7.07;6.25;;;25.90;99.90;;;;;;5016755;28;20136;-70
2021/06/27 09:04:44;;;;;;;9.90;6.28;;;26.00;99.90;;;;;;5033417;28;20042;-70
2021/06/27 09:07:32;;;;;;;8.57;7.07;;;26.10;99.90;;;;;;5031496;28;20045;-70
2021/06/27 09:10:16;;;;;;;8.75;6.03;;;25.90;99.90;;;;;;5034928;28;20045;-70
2021/06/27 09:12:55;;;;;;;7.97;6.70;;;26.10;99.90;;;;;;5044432;28;20048;-70
2021/06/27 09:15:47;;;;;;;6.93;5.70;;;26.30;99.90;;;;;;5049956;28;20155;-70
2021/06/27 09:18:14;;;;;;;6.78;5.10;;;26.50;99.90;;;;;;5050173;28;20135;-70
2021/06/27 09:20:44;;;;;;;6.68;5.43;;;26.50;99.90;;;;;;5033148;28;20420;-71
2021/06/27 09:23:13;;;;;;;6.82;5.38;;;26.60;99.90;;;;;;5039678;28;20050;-71
2021/06/27 09:25:43;;;;;;;6.55;5.40;;;26.80;99.90;;;;;;5041317;28;20131;-71
2021/06/27 09:28:16;;;;;;;7.47;5.30;;;27.20;99.90;;;;;;5057770;28;20073;-71
2021/06/27 09:30:54;;;;;;;6.70;5.35;;;27.50;99.90;;;;;;5014946;28;20076;-71
2021/06/27 09:33:30;;;;;;;6.65;5.10;;;27.80;99.90;;;;;;5019293;28;20049;-71
2021/06/27 09:36:11;;;;;;;5.65;4.88;;;28.00;99.90;;;;;;5045530;28;20495;-71
2021/06/27 09:38:44;;;;;;;6.18;4.63;;;28.20;99.90;;;;;;5049098;28;20052;-71
2021/06/27 09:41:34;;;;;;;6.13;4.65;;;28.30;99.90;;;;;;5051380;28;20546;-71
2021/06/27 09:44:09;;;;;;;7.00;5.47;;;28.40;99.90;;;;;;5047923;28;22421;-71
2021/06/27 09:46:40;;;;;;;7.55;4.97;;;28.40;99.90;;;;;;5039734;28;20394;-71
2021/06/27 09:49:16;;;;;;;7.63;5.28;;;28.50;99.90;;;;;;5048915;28;20422;-71
2021/06/27 09:51:50;;;;;;;6.38;4.43;;;28.60;99.90;;;;;;5032374;28;20041;-71
2021/06/27 09:54:22;;;;;;;5.63;4.50;;;28.50;99.90;;;;;;5015443;28;20568;-71
2021/06/27 09:56:50;;;;;;;7.88;4.72;;;28.50;99.90;;;;;;5044240;28;20515;-71
2021/06/27 09:59:20;;;;;;;5.82;4.70;;;28.40;99.90;;;;;;5050932;28;20475;-71
2021/06/27 10:01:48;;;;;;;6.18;4.78;;;28.60;99.90;;;;;;5029554;28;20576;-71
2021/06/27 10:04:28;;;;;;;7.57;6.05;;;28.70;99.90;;;;;;5049732;28;20088;-71
2021/06/27 10:06:57;;;;;;;5.95;4.60;;;28.90;99.90;;;;;;5042764;28;20523;-71
2021/06/27 10:09:29;;;;;;;6.05;4.70;;;29.10;99.90;;;;;;5013595;28;20052;-71
2021/06/27 10:12:01;;;;;;;6.75;5.03;;;29.40;99.90;;;;;;5032325;28;20163;-71
2021/06/27 10:14:34;;;;;;;4.93;3.75;;;29.60;99.90;;;;;;5048802;28;20081;-70
2021/06/27 10:17:05;;;;;;;8.43;6.07;;;29.60;99.90;;;;;;5049431;28;20045;-71
2021/06/27 10:19:33;;;;;;;9.45;7.43;;;29.50;99.90;;;;;;5032072;28;20072;-71
2021/06/27 10:22:02;;;;;;;5.85;4.55;;;29.50;99.90;;;;;;5032234;28;20045;-71
2021/06/27 10:24:30;;;;;;;5.65;4.57;;;29.60;99.90;;;;;;5030239;28;20053;-70
2021/06/27 10:27:04;;;;;;;5.03;4.20;;;30.00;99.90;;;;;;5054756;28;20107;-70
2021/06/27 10:29:36;;;;;;;4.93;3.70;;;30.20;99.90;;;;;;5053385;28;20049;-70
2021/06/27 10:32:06;;;;;;;4.43;3.78;;;30.30;99.90;;;;;;5053660;28;20047;-69
2021/06/27 10:34:34;;;;;;;4.50;3.60;;;30.30;99.90;;;;;;5034526;28;20053;-69
2021/06/27 10:37:19;;;;;;;6.45;4.05;;;30.10;99.90;;;;;;5036410;28;20068;-71
2021/06/27 10:40:01;;;;;;;4.75;3.90;;;30.10;99.90;;;;;;5054069;28;20053;-72
2021/06/27 10:42:47;;;;;;;4.40;3.10;;;30.50;99.90;;;;;;5018632;28;20091;-71
2021/06/27 10:45:22;;;;;;;5.55;3.00;;;30.50;99.90;;;;;;5033906;28;20044;-71
2021/06/27 10:47:50;;;;;;;4.20;2.80;;;30.60;99.90;;;;;;5033060;28;20111;-71
2021/06/27 10:50:19;;;;;;;6.28;3.50;;;30.80;99.90;;;;;;5034872;28;20057;-70
2021/06/27 10:52:55;;;;;;;4.43;3.33;;;30.90;99.90;;;;;;5053078;28;20076;-69
2021/06/27 10:55:31;;;;;;;4.53;2.42;;;31.00;99.90;;;;;;5024220;28;20049;-70
2021/06/27 10:58:11;;;;;;;3.92;2.65;;;31.30;99.90;;;;;;5052932;28;20097;-71
2021/06/27 11:00:54;;;;;;;5.10;2.75;;;31.30;98.80;;;;;;5053069;28;20136;-70
2021/06/27 11:03:23;;;;;;;3.67;2.80;;;31.10;98.40;;;;;;5015051;28;20156;-69
2021/06/27 11:05:55;;;;;;;5.03;3.00;;;31.00;98.20;;;;;;5045760;28;20053;-69
2021/06/27 11:08:35;;;;;;;4.65;2.60;;;30.90;97.90;;;;;;5035387;28;20052;-66
2021/06/27 11:11:21;;;;;;;3.85;2.60;;;31.00;97.60;;;;;;5052139;28;20060;-66
2021/06/27 11:14:18;;;;;;;4.28;2.65;;;31.40;96.90;;;;;;5051917;28;20392;-66
2021/06/27 11:17:08;;;;;;;3.50;2.55;;;31.90;95.90;;;;;;5037271;28;20060;-66
2021/06/27 11:19:38;;;;;;;3.40;2.40;;;32.10;95.50;;;;;;5041653;28;20120;-66
2021/06/27 11:22:22;;;;;;;4.72;2.70;;;32.40;95.40;;;;;;5051516;28;20075;-66
2021/06/27 11:24:55;;;;;;;4.18;2.75;;;32.40;94.80;;;;;;5053618;28;20084;-66
2021/06/27 11:27:34;;;;;;;3.45;2.60;;;32.50;94.10;;;;;;5048861;28;20052;-66
2021/06/27 11:30:21;;;;;;;3.88;2.50;;;32.20;93.70;;;;;;5052012;28;20049;-65
2021/06/27 11:32:51;;;;;;;3.22;2.20;;;32.40;93.20;;;;;;5051955;28;20052;-66
2021/06/27 11:35:33;;;;;;;3.97;2.50;;;32.60;92.70;;;;;;5052407;28;20084;-66
2021/06/27 11:38:02;;;;;;;3.55;2.60;;;33.00;91.80;;;;;;5051229;28;20063;-66
2021/06/27 11:40:51;;;;;;;4.25;3.20;;;33.60;91.60;;;;;;5050997;28;20136;-66
2021/06/27 11:43:49;;;;;;;3.67;2.67;;;34.10;91.50;;;;;;5050871;28;20123;-66
2021/06/27 11:46:25;;;;;;;5.10;2.92;;;34.80;90.80;;;;;;5049085;28;20103;-66
2021/06/27 11:48:54;;;;;;;5.57;4.25;;;35.10;90.10;;;;;;5051591;28;20041;-67
2021/06/27 11:51:46;;;;;;;3.75;2.72;;;35.40;88.60;;;;;;5047183;28;20053;-67
2021/06/27 11:54:16;;;;;;;3.22;2.42;;;35.30;87.40;;;;;;5052800;28;20495;-65
2021/06/27 11:57:05;;;;;;;3.47;2.75;;;35.50;86.20;;;;;;5029437;28;20457;-70
2021/06/27 11:59:40;;;;;;;3.97;2.63;;;34.90;86.30;;;;;;5033478;28;20057;-70
2021/06/27 12:02:16;;;;;;;3.83;2.42;;;34.80;87.20;;;;;;5032665;28;20080;-71
2021/06/27 12:04:45;;;;;;;4.95;2.60;;;34.20;87.00;;;;;;5049672;28;20388;-70
2021/06/27 12:07:31;;;;;;;3.10;2.40;;;34.00;87.50;;;;;;5049924;28;20057;-70
2021/06/27 12:10:07;;;;;;;6.13;4.32;;;33.90;88.20;;;;;;5032401;28;20069;-70
2021/06/27 12:12:44;;;;;;;7.05;3.97;;;34.40;88.20;;;;;;5026291;28;20051;-70
2021/06/27 12:15:15;;;;;;;5.47;4.25;;;34.70;87.60;;;;;;5049052;28;20045;-71
2021/06/27 12:17:47;;;;;;;4.13;3.00;;;35.00;86.40;;;;;;5048634;28;20404;-71
2021/06/27 12:20:16;;;;;;;3.90;2.90;;;35.50;84.90;;;;;;5036161;28;20393;-70
2021/06/27 12:23:29;;;;;;;3.80;2.63;;;35.80;83.60;;;;;;5032916;28;20040;-71
2021/06/27 12:26:00;;;;;;;3.83;2.75;;;36.00;83.80;;;;;;5028182;28;20041;-71
2021/06/27 12:28:33;;;;;;;4.90;2.85;;;36.70;81.30;;;;;;5029704;28;20116;-71
2021/06/27 12:31:29;;;;;;;3.20;2.40;;;37.00;80.80;;;;;;5029898;28;20495;-71
2021/06/27 12:34:06;;;;;;;;;;;36.70;78.30;;;;;;5033068;28;20191;-71
2021/06/27 12:37:00;;;;;;;4.57;2.85;;;36.30;79.40;;;;;;5049659;28;20391;-71
2021/06/27 12:39:30;;;;;;;4.63;2.75;;;36.00;78.80;;;;;;5023961;28;20400;-71
2021/06/27 12:42:12;;;;;;;7.43;5.50;;;35.40;79.30;;;;;;5047709;28;20076;-71
2021/06/27 12:44:40;;;;;;;4.43;3.08;;;35.30;80.40;;;;;;5045308;28;20057;-71
2021/06/27 12:47:07;;;;;;;4.53;3.60;;;34.60;79.40;;;;;;5046417;28;20063;-71
2021/06/27 12:49:36;;;;;;;4.25;2.92;;;34.70;81.60;;;;;;5031502;28;20466;-71
2021/06/27 12:52:07;;;;;;;4.45;2.88;;;34.90;81.50;;;;;;5031501;28;20051;-70
2021/06/27 12:54:35;;;;;;;5.37;3.03;;;35.20;80.30;;;;;;5030364;28;20499;-70
2021/06/27 12:57:05;;;;;;;3.53;2.55;;;34.90;80.80;;;;;;5052474;28;20053;-70
2021/06/27 12:59:35;;;;;;;4.38;2.92;;;34.70;81.10;;;;;;5057743;28;20076;-70
2021/06/27 13:02:09;;;;;;;3.83;2.63;;;34.60;81.40;;;;;;5057427;28;20048;-70
2021/06/27 13:04:44;;;;;;;3.85;2.75;;;34.20;81.40;;;;;;5038016;28;20091;-70